createdAt,value
2022-09-23T00:00:10.333Z,97.88
2022-09-23T00:01:10.432Z,97.98
2022-09-23T00:02:10.343Z,97.98
2022-09-23T00:03:10.302Z,97.98
2022-09-23T00:04:10.297Z,97.88
2022-09-23T00:05:10.261Z,97.67
2022-09-23T00:06:10.312Z,97.67
2022-09-23T00:07:10.239Z,97.67
2022-09-23T00:08:10.249Z,97.77
2022-09-23T00:09:10.226Z,97.88
2022-09-23T00:10:10.212Z,97.88
2022-09-23T00:11:10.200Z,97.98
2022-09-23T00:12:10.222Z,97.88
2022-09-23T00:13:10.187Z,97.67
2022-09-23T00:14:10.217Z,97.56
2022-09-23T00:15:10.196Z,97.56
2022-09-23T00:16:10.173Z,97.77
2022-09-23T00:17:10.173Z,97.88
2022-09-23T00:18:10.144Z,97.98
2022-09-23T00:19:10.144Z,97.98
2022-09-23T00:20:10.134Z,97.77
2022-09-23T00:21:10.121Z,97.77
2022-09-23T00:22:10.104Z,97.67
2022-09-23T00:23:10.065Z,97.56
2022-09-23T00:24:10.103Z,97.56
2022-09-23T00:25:10.049Z,97.67
2022-09-23T00:26:10.052Z,97.77
2022-09-23T00:27:10.041Z,97.88
2022-09-23T00:28:10.053Z,97.88
2022-09-23T00:29:10.014Z,98.19
2022-09-23T00:30:10.034Z,98.29
2022-09-23T00:31:10.038Z,98.29
2022-09-23T00:32:09.998Z,98.29
2022-09-23T00:33:09.961Z,98.14
2022-09-23T00:34:09.983Z,98.24
2022-09-23T00:35:09.947Z,98.50
2022-09-23T00:36:09.957Z,98.35
2022-09-23T00:37:10.078Z,98.14
2022-09-23T00:38:09.939Z,98.14
2022-09-23T00:39:09.914Z,98.19
2022-09-23T00:40:09.937Z,98.24
2022-09-23T00:41:09.878Z,98.24
2022-09-23T00:42:09.895Z,98.24
2022-09-23T00:43:09.895Z,98.29
2022-09-23T00:44:09.858Z,98.35
2022-09-23T00:45:09.846Z,98.35
2022-09-23T00:46:09.938Z,98.55
2022-09-23T00:47:09.827Z,98.66
2022-09-23T00:48:09.844Z,98.66
2022-09-23T00:49:09.807Z,98.66
2022-09-23T00:50:09.798Z,98.55
2022-09-23T00:51:09.803Z,98.55
2022-09-23T00:52:09.801Z,98.45
2022-09-23T00:53:09.791Z,98.45
2022-09-23T00:54:09.762Z,98.55
2022-09-23T00:55:09.737Z,98.45
2022-09-23T00:56:09.735Z,98.66
2022-09-23T00:57:09.726Z,98.76
2022-09-23T00:58:09.724Z,98.76
2022-09-23T00:59:09.739Z,98.86
2022-09-23T01:00:09.728Z,98.97
2022-09-23T01:01:09.765Z,98.86
2022-09-23T01:02:09.726Z,98.86
2022-09-23T01:03:09.679Z,98.76
2022-09-23T01:04:09.651Z,98.66
2022-09-23T01:05:09.659Z,98.76
2022-09-23T01:06:09.698Z,98.76
2022-09-23T01:07:09.621Z,98.55
2022-09-23T01:08:09.643Z,98.55
2022-09-23T01:09:09.620Z,98.45
2022-09-23T01:10:09.609Z,98.45
2022-09-23T01:11:09.593Z,98.45
2022-09-23T01:12:09.568Z,98.45
2022-09-23T01:13:09.562Z,98.45
2022-09-23T01:14:09.558Z,98.45
2022-09-23T01:15:09.549Z,98.45
2022-09-23T01:16:09.528Z,98.45
2022-09-23T01:17:09.516Z,98.45
2022-09-23T01:18:09.541Z,98.35
2022-09-23T01:19:09.508Z,98.24
2022-09-23T01:20:09.505Z,98.14
2022-09-23T01:21:09.488Z,98.35
2022-09-23T01:22:09.482Z,98.66
2022-09-23T01:23:09.458Z,98.76
2022-09-23T01:24:09.436Z,98.66
2022-09-23T01:25:09.452Z,98.55
2022-09-23T01:26:09.439Z,98.55
2022-09-23T01:27:09.402Z,98.55
2022-09-23T01:28:09.414Z,98.55
2022-09-23T01:29:09.488Z,98.50
2022-09-23T01:30:09.397Z,98.39
2022-09-23T01:31:09.446Z,98.50
2022-09-23T01:32:09.375Z,98.50
2022-09-23T01:33:09.419Z,98.50
2022-09-23T01:34:09.338Z,98.39
2022-09-23T01:35:09.325Z,98.39
2022-09-23T01:36:09.339Z,98.29
2022-09-23T01:37:09.304Z,98.29
2022-09-23T01:38:09.301Z,98.29
2022-09-23T01:39:09.431Z,98.29
2022-09-23T01:40:09.327Z,98.29
2022-09-23T01:41:09.288Z,98.29
2022-09-23T01:42:09.266Z,98.50
2022-09-23T01:43:09.242Z,98.50
2022-09-23T01:44:09.251Z,98.50
2022-09-23T01:45:09.227Z,98.50
2022-09-23T01:46:09.226Z,98.50
2022-09-23T01:47:09.230Z,98.39
2022-09-23T01:48:09.284Z,98.50
2022-09-23T01:49:09.195Z,98.50
2022-09-23T01:50:09.220Z,98.50
2022-09-23T01:51:09.159Z,98.39
2022-09-23T01:52:09.173Z,98.39
2022-09-23T01:53:09.140Z,98.60
2022-09-23T01:54:09.176Z,98.70
2022-09-23T01:55:09.114Z,98.91
2022-09-23T01:56:09.129Z,98.91
2022-09-23T01:57:09.120Z,99.01
2022-09-23T01:58:09.112Z,99.11
2022-09-23T01:59:09.079Z,99.11
2022-09-23T02:00:09.084Z,99.11
2022-09-23T02:01:09.138Z,99.11
2022-09-23T02:02:09.128Z,99.11
2022-09-23T02:03:09.074Z,99.11
2022-09-23T02:04:09.012Z,99.11
2022-09-23T02:05:09.034Z,99.01
2022-09-23T02:06:09.035Z,99.11
2022-09-23T02:07:09.024Z,99.32
2022-09-23T02:08:09.028Z,99.43
2022-09-23T02:09:09.051Z,99.52
2022-09-23T02:10:08.959Z,99.63
2022-09-23T02:11:08.963Z,99.52
2022-09-23T02:12:08.961Z,99.43
2022-09-23T02:13:08.986Z,99.63
2022-09-23T02:14:08.920Z,99.73
2022-09-23T02:15:08.935Z,99.84
2022-09-23T02:16:08.971Z,99.94
2022-09-23T02:17:08.889Z,99.94
2022-09-23T02:18:08.887Z,99.94
2022-09-23T02:19:08.909Z,99.94
2022-09-23T02:20:08.901Z,99.84
2022-09-23T02:21:08.877Z,99.84
2022-09-23T02:22:08.863Z,99.84
2022-09-23T02:23:08.848Z,99.84
2022-09-23T02:24:08.842Z,99.73
2022-09-23T02:25:08.833Z,99.52
2022-09-23T02:26:08.803Z,99.43
2022-09-23T02:27:08.809Z,99.22
2022-09-23T02:28:08.811Z,99.22
2022-09-23T02:29:08.779Z,99.11
2022-09-23T02:30:08.765Z,99.32
2022-09-23T02:31:08.762Z,99.32
2022-09-23T02:32:08.765Z,99.52
2022-09-23T02:33:08.754Z,99.43
2022-09-23T02:34:08.788Z,99.32
2022-09-23T02:35:08.729Z,99.43
2022-09-23T02:36:08.715Z,99.57
2022-09-23T02:37:08.694Z,99.43
2022-09-23T02:38:08.701Z,99.26
2022-09-23T02:39:08.701Z,99.16
2022-09-23T02:40:08.695Z,99.06
2022-09-23T02:41:08.650Z,99.06
2022-09-23T02:42:08.667Z,99.16
2022-09-23T02:43:08.651Z,99.06
2022-09-23T02:44:08.686Z,99.26
2022-09-23T02:45:08.666Z,99.16
2022-09-23T02:46:08.680Z,99.16
2022-09-23T02:47:08.599Z,99.16
2022-09-23T02:48:08.587Z,99.06
2022-09-23T02:49:08.581Z,99.16
2022-09-23T02:50:08.575Z,99.16
2022-09-23T02:51:08.583Z,99.16
2022-09-23T02:52:08.522Z,99.26
2022-09-23T02:53:08.544Z,99.16
2022-09-23T02:54:08.515Z,99.06
2022-09-23T02:55:08.522Z,98.96
2022-09-23T02:56:08.519Z,98.96
2022-09-23T02:57:08.482Z,98.96
2022-09-23T02:58:08.481Z,99.06
2022-09-23T02:59:08.595Z,99.16
2022-09-23T03:00:08.455Z,99.37
2022-09-23T03:01:08.500Z,99.37
2022-09-23T03:02:08.488Z,99.37
2022-09-23T03:03:08.436Z,99.37
2022-09-23T03:04:08.427Z,99.37
2022-09-23T03:05:08.450Z,99.57
2022-09-23T03:06:08.379Z,99.57
2022-09-23T03:07:08.379Z,99.57
2022-09-23T03:08:08.392Z,99.57
2022-09-23T03:09:08.368Z,99.68
2022-09-23T03:10:08.355Z,99.68
2022-09-23T03:11:08.347Z,99.57
2022-09-23T03:12:08.355Z,99.68
2022-09-23T03:13:08.337Z,99.57
2022-09-23T03:14:08.318Z,99.68
2022-09-23T03:15:08.318Z,99.78
2022-09-23T03:16:08.379Z,99.78
2022-09-23T03:17:08.268Z,99.78
2022-09-23T03:18:08.272Z,99.99
2022-09-23T03:19:08.259Z,99.99
2022-09-23T03:20:08.250Z,99.99
2022-09-23T03:21:08.249Z,99.88
2022-09-23T03:22:08.235Z,99.78
2022-09-23T03:23:08.216Z,99.78
2022-09-23T03:24:08.209Z,99.68
2022-09-23T03:25:08.197Z,99.57
2022-09-23T03:26:08.186Z,99.57
2022-09-23T03:27:08.178Z,99.57
2022-09-23T03:28:08.162Z,99.57
2022-09-23T03:29:08.259Z,99.57
2022-09-23T03:30:08.159Z,99.68
2022-09-23T03:31:08.128Z,99.88
2022-09-23T03:32:08.243Z,99.82
2022-09-23T03:33:08.128Z,99.82
2022-09-23T03:34:08.092Z,99.82
2022-09-23T03:35:08.129Z,99.72
2022-09-23T03:36:08.086Z,99.62
2022-09-23T03:37:08.074Z,99.62
2022-09-23T03:38:08.057Z,99.62
2022-09-23T03:39:08.045Z,99.62
2022-09-23T03:40:08.055Z,99.62
2022-09-23T03:41:08.037Z,99.62
2022-09-23T03:42:08.030Z,99.62
2022-09-23T03:43:07.999Z,99.52
2022-09-23T03:44:07.997Z,99.52
2022-09-23T03:45:07.996Z,99.52
2022-09-23T03:46:08.073Z,99.52
2022-09-23T03:47:07.978Z,99.52
2022-09-23T03:48:08.000Z,99.41
2022-09-23T03:49:07.933Z,99.52
2022-09-23T03:50:07.947Z,99.52
2022-09-23T03:51:07.951Z,99.62
2022-09-23T03:52:07.901Z,99.52
2022-09-23T03:53:07.934Z,99.62
2022-09-23T03:54:07.951Z,99.77
2022-09-23T03:55:07.899Z,99.66
2022-09-23T03:56:07.889Z,99.56
2022-09-23T03:57:07.875Z,99.56
2022-09-23T03:58:07.858Z,99.46
2022-09-23T03:59:07.876Z,99.35
2022-09-23T04:00:07.822Z,99.46
2022-09-23T04:01:07.881Z,99.35
2022-09-23T04:02:07.986Z,99.46
2022-09-23T04:03:11.535Z,99.66
2022-09-23T04:04:07.859Z,99.77
2022-09-23T04:05:07.791Z,99.77
2022-09-23T04:06:07.763Z,99.66
2022-09-23T04:07:07.768Z,99.66
2022-09-23T04:08:07.731Z,99.66
2022-09-23T04:09:07.764Z,99.56
2022-09-23T04:10:07.725Z,99.66
2022-09-23T04:11:07.723Z,99.66
2022-09-23T04:12:07.691Z,99.66
2022-09-23T04:13:07.711Z,99.56
2022-09-23T04:14:07.689Z,99.61
2022-09-23T04:15:07.672Z,99.56
2022-09-23T04:16:07.741Z,99.71
2022-09-23T04:17:07.642Z,99.71
2022-09-23T04:18:07.656Z,99.71
2022-09-23T04:19:11.450Z,99.82
2022-09-23T04:20:07.622Z,99.71
2022-09-23T04:21:07.603Z,99.82
2022-09-23T04:22:07.596Z,99.82
2022-09-23T04:23:07.593Z,99.82
2022-09-23T04:24:07.600Z,99.82
2022-09-23T04:25:07.603Z,99.71
2022-09-23T04:26:07.565Z,99.71
2022-09-23T04:27:07.561Z,99.61
2022-09-23T04:28:07.535Z,99.61
2022-09-23T04:29:07.599Z,99.71
2022-09-23T04:30:07.521Z,99.71
2022-09-23T04:31:07.515Z,99.82
2022-09-23T04:32:07.483Z,99.82
2022-09-23T04:33:07.489Z,99.92
2022-09-23T04:34:07.489Z,99.92
2022-09-23T04:35:07.493Z,99.92
2022-09-23T04:36:07.447Z,99.92
2022-09-23T04:37:07.443Z,99.92
2022-09-23T04:38:07.435Z,99.99
2022-09-23T04:39:07.606Z,99.96
2022-09-23T04:40:07.450Z,99.92
2022-09-23T04:41:07.415Z,99.96
2022-09-23T04:42:07.396Z,99.99
2022-09-23T04:43:11.668Z,99.96
2022-09-23T04:44:07.314Z,99.86
2022-09-23T04:45:07.378Z,99.76
2022-09-23T04:46:07.317Z,99.76
2022-09-23T04:47:07.417Z,99.65
2022-09-23T04:48:07.268Z,99.55
2022-09-23T04:49:07.430Z,99.44
2022-09-23T04:50:07.248Z,99.44
2022-09-23T04:51:07.278Z,99.34
2022-09-23T04:52:07.230Z,99.34
2022-09-23T04:53:07.224Z,99.24
2022-09-23T04:54:07.230Z,99.24
2022-09-23T04:55:11.026Z,99.34
2022-09-23T04:56:07.221Z,99.34
2022-09-23T04:57:07.192Z,99.34
2022-09-23T04:58:07.186Z,99.44
2022-09-23T04:59:07.369Z,99.44
2022-09-23T05:00:07.156Z,99.55
2022-09-23T05:01:07.178Z,99.55
2022-09-23T05:02:07.194Z,99.55
2022-09-23T05:03:07.125Z,99.55
2022-09-23T05:04:07.127Z,99.44
2022-09-23T05:05:07.099Z,99.34
2022-09-23T05:06:07.113Z,99.24
2022-09-23T05:07:07.087Z,99.34
2022-09-23T05:08:07.079Z,99.24
2022-09-23T05:09:07.278Z,99.24
2022-09-23T05:10:07.037Z,99.34
2022-09-23T05:11:07.038Z,99.55
2022-09-23T05:12:07.054Z,99.80
2022-09-23T05:13:07.029Z,99.91
2022-09-23T05:14:07.004Z,99.99
2022-09-23T05:15:06.996Z,99.99
2022-09-23T05:16:07.054Z,99.99
2022-09-23T05:17:07.010Z,99.99
2022-09-23T05:18:06.956Z,99.99
2022-09-23T05:19:07.122Z,99.99
2022-09-23T05:20:06.950Z,99.99
2022-09-23T05:21:06.942Z,99.99
2022-09-23T05:22:06.928Z,99.99
2022-09-23T05:23:06.949Z,99.99
2022-09-23T05:24:06.894Z,99.99
2022-09-23T05:25:06.898Z,99.99
2022-09-23T05:26:06.880Z,99.99
2022-09-23T05:27:06.885Z,99.99
2022-09-23T05:28:06.873Z,99.99
2022-09-23T05:29:07.035Z,99.99
2022-09-23T05:30:06.828Z,99.99
2022-09-23T05:31:06.902Z,99.99
2022-09-23T05:32:06.818Z,99.99
2022-09-23T05:33:06.819Z,99.99
2022-09-23T05:34:06.805Z,99.99
2022-09-23T05:35:06.797Z,99.99
2022-09-23T05:36:06.774Z,99.99
2022-09-23T05:37:06.778Z,99.99
2022-09-23T05:38:06.749Z,99.99
2022-09-23T05:39:06.916Z,99.99
2022-09-23T05:40:06.837Z,99.99
2022-09-23T05:41:06.730Z,99.99
2022-09-23T05:42:06.736Z,99.99
2022-09-23T05:43:06.712Z,99.99
2022-09-23T05:44:06.688Z,99.99
2022-09-23T05:45:06.712Z,99.99
2022-09-23T05:46:08.422Z,99.99
2022-09-23T05:47:06.724Z,99.99
2022-09-23T05:48:06.660Z,99.99
2022-09-23T05:49:06.649Z,99.99
2022-09-23T05:50:06.635Z,99.99
2022-09-23T05:51:06.637Z,99.99
2022-09-23T05:52:06.619Z,99.99
2022-09-23T05:53:06.630Z,99.99
2022-09-23T05:54:06.736Z,99.99
2022-09-23T05:55:06.582Z,99.99
2022-09-23T05:56:06.610Z,99.99
2022-09-23T05:57:06.562Z,99.99
2022-09-23T05:58:06.550Z,99.99
2022-09-23T05:59:06.714Z,99.99
2022-09-23T06:00:06.813Z,99.99
2022-09-23T06:01:06.521Z,99.99
2022-09-23T06:02:06.695Z,99.99
2022-09-23T06:03:06.581Z,99.99
2022-09-23T06:04:06.706Z,99.99
2022-09-23T06:05:06.481Z,99.99
2022-09-23T06:06:06.487Z,99.99
2022-09-23T06:07:06.476Z,99.99
2022-09-23T06:08:06.469Z,99.99
2022-09-23T06:09:06.687Z,99.99
2022-09-23T06:10:06.443Z,99.99
2022-09-23T06:11:06.424Z,99.99
2022-09-23T06:12:06.436Z,99.99
2022-09-23T06:13:06.413Z,99.99
2022-09-23T06:14:06.486Z,99.99
2022-09-23T06:15:06.372Z,99.99
2022-09-23T06:16:06.409Z,99.99
2022-09-23T06:17:06.347Z,99.99
2022-09-23T06:18:06.371Z,99.99
2022-09-23T06:19:06.977Z,99.99
2022-09-23T06:20:06.317Z,99.99
2022-09-23T06:21:06.313Z,99.99
2022-09-23T06:22:06.306Z,99.99
2022-09-23T06:23:09.816Z,99.99
2022-09-23T06:24:06.489Z,99.99
2022-09-23T06:25:06.255Z,99.99
2022-09-23T06:26:06.258Z,99.99
2022-09-23T06:27:06.258Z,99.99
2022-09-23T06:28:06.256Z,99.99
2022-09-23T06:29:06.264Z,99.99
2022-09-23T06:30:06.209Z,99.99
2022-09-23T06:31:10.817Z,99.99
2022-09-23T06:32:06.201Z,99.99
2022-09-23T06:33:06.203Z,99.99
2022-09-23T06:34:11.520Z,99.99
2022-09-23T06:35:07.268Z,99.99
2022-09-23T06:36:06.160Z,99.99
2022-09-23T06:37:18.308Z,99.99
2022-09-23T06:38:06.137Z,99.99
2022-09-23T06:39:06.106Z,99.99
2022-09-23T06:40:06.185Z,99.99
2022-09-23T06:41:06.095Z,99.99
2022-09-23T06:42:06.098Z,99.99
2022-09-23T06:43:06.094Z,99.99
2022-09-23T06:44:06.182Z,99.99
2022-09-23T06:45:06.050Z,99.99
2022-09-23T06:46:06.160Z,99.99
2022-09-23T06:47:06.036Z,99.99
2022-09-23T06:48:06.022Z,99.99
2022-09-23T06:49:06.001Z,99.99
2022-09-23T06:50:06.007Z,99.99
2022-09-23T06:51:06.015Z,99.99
2022-09-23T06:52:05.986Z,99.99
2022-09-23T06:53:05.954Z,99.99
2022-09-23T06:54:06.037Z,99.99
2022-09-23T06:55:05.954Z,99.99
2022-09-23T06:56:05.961Z,99.99
2022-09-23T06:57:05.952Z,99.99
2022-09-23T06:58:05.922Z,99.99
2022-09-23T06:59:05.926Z,99.99
2022-09-23T07:00:05.893Z,99.99
2022-09-23T07:01:05.880Z,99.99
2022-09-23T07:02:05.977Z,99.99
2022-09-23T07:03:05.976Z,99.99
2022-09-23T07:04:06.063Z,99.99
2022-09-23T07:05:05.853Z,99.99
2022-09-23T07:06:05.847Z,99.99
2022-09-23T07:07:05.828Z,99.99
2022-09-23T07:08:05.841Z,99.99
2022-09-23T07:09:05.839Z,99.99
2022-09-23T07:10:05.799Z,99.99
2022-09-23T07:11:05.799Z,99.99
2022-09-23T07:12:05.789Z,99.99
2022-09-23T07:13:05.779Z,99.99
2022-09-23T07:14:05.753Z,99.99
2022-09-23T07:15:05.757Z,99.99
2022-09-23T07:16:05.790Z,99.99
2022-09-23T07:17:05.735Z,99.99
2022-09-23T07:18:05.721Z,99.99
2022-09-23T07:19:05.907Z,99.99
2022-09-23T07:20:05.968Z,99.99
2022-09-23T07:21:05.699Z,99.99
2022-09-23T07:22:05.685Z,99.99
2022-09-23T07:23:05.678Z,99.90
2022-09-23T07:24:05.676Z,99.75
2022-09-23T07:25:05.655Z,99.75
2022-09-23T07:26:05.672Z,99.85
2022-09-23T07:27:05.618Z,99.99
2022-09-23T07:28:05.627Z,99.99
2022-09-23T07:29:05.616Z,99.99
2022-09-23T07:30:05.961Z,99.99
2022-09-23T07:31:05.641Z,99.99
2022-09-23T07:32:12.937Z,99.86
2022-09-23T07:33:17.260Z,99.99
2022-09-23T07:34:05.748Z,99.99
2022-09-23T07:35:05.547Z,99.99
2022-09-23T07:36:05.561Z,99.91
2022-09-23T07:37:05.533Z,98.79
2022-09-23T07:38:05.511Z,98.58
2022-09-23T07:39:05.492Z,98.28
2022-09-23T07:40:05.541Z,97.82
2022-09-23T07:41:05.481Z,97.72
2022-09-23T07:42:05.467Z,97.72
2022-09-23T07:43:05.463Z,97.82
2022-09-23T07:44:05.460Z,97.78
2022-09-23T07:45:05.454Z,96.96
2022-09-23T07:46:05.492Z,96.45
2022-09-23T07:47:05.423Z,95.84
2022-09-23T07:48:05.417Z,95.89
2022-09-23T07:49:05.505Z,95.89
2022-09-23T07:50:05.396Z,96.41
2022-09-23T07:51:05.375Z,96.36
2022-09-23T07:52:05.409Z,95.85
2022-09-23T07:53:05.371Z,95.34
2022-09-23T07:54:05.353Z,95.60
2022-09-23T07:55:05.329Z,94.68
2022-09-23T07:56:05.342Z,94.68
2022-09-23T07:57:05.327Z,95.86
2022-09-23T07:58:05.334Z,94.33
2022-09-23T07:59:06.527Z,92.39
2022-09-23T08:00:05.290Z,92.96
2022-09-23T08:01:05.313Z,93.06
2022-09-23T08:02:05.288Z,91.43
2022-09-23T08:03:05.377Z,90.10
2022-09-23T08:04:05.238Z,89.25
2022-09-23T08:05:05.239Z,89.96
2022-09-23T08:06:05.222Z,89.65
2022-09-23T08:07:05.226Z,90.57
2022-09-23T08:08:05.224Z,89.30
2022-09-23T08:09:05.477Z,88.18
2022-09-23T08:10:05.197Z,86.86
2022-09-23T08:11:05.172Z,87.67
2022-09-23T08:12:05.166Z,87.73
2022-09-23T08:13:05.154Z,88.45
2022-09-23T08:14:05.182Z,88.04
2022-09-23T08:15:05.134Z,87.29
2022-09-23T08:16:05.181Z,86.77
2022-09-23T08:17:05.123Z,85.45
2022-09-23T08:18:05.113Z,85.75
2022-09-23T08:20:05.090Z,83.68
2022-09-23T08:21:05.065Z,85.00
2022-09-23T08:22:05.068Z,83.58
2022-09-23T08:23:05.062Z,83.95
2022-09-23T08:24:05.056Z,84.86
2022-09-23T08:25:07.683Z,84.25
2022-09-23T08:26:05.029Z,84.05
2022-09-23T08:27:05.025Z,82.93
2022-09-23T08:28:05.025Z,83.13
2022-09-23T08:29:04.985Z,84.25
2022-09-23T08:30:04.989Z,82.12
2022-09-23T08:31:05.009Z,80.55
2022-09-23T08:32:04.953Z,81.46
2022-09-23T08:33:04.947Z,82.79
2022-09-23T08:34:05.154Z,80.24
2022-09-23T08:35:04.926Z,80.96
2022-09-23T08:36:04.903Z,79.74
2022-09-23T08:37:04.925Z,79.74
2022-09-23T08:38:04.922Z,79.13
2022-09-23T08:39:04.894Z,78.82
2022-09-23T08:40:04.922Z,79.33
2022-09-23T08:41:04.869Z,79.84
2022-09-23T08:42:04.867Z,79.84
2022-09-23T08:43:04.830Z,79.43
2022-09-23T08:44:04.856Z,79.29
2022-09-23T08:45:04.836Z,79.50
2022-09-23T08:46:04.862Z,78.99
2022-09-23T08:47:04.798Z,79.09
2022-09-23T08:48:06.061Z,78.89
2022-09-23T08:49:04.786Z,79.29
2022-09-23T08:50:04.793Z,79.19
2022-09-23T08:51:04.753Z,78.95
2022-09-23T08:52:04.782Z,79.46
2022-09-23T08:53:04.747Z,79.05
2022-09-23T08:54:04.754Z,78.75
2022-09-23T08:55:04.765Z,80.07
2022-09-23T08:56:04.701Z,79.02
2022-09-23T08:57:04.698Z,78.61
2022-09-23T08:59:04.687Z,79.22
2022-09-23T09:00:04.667Z,77.70
2022-09-23T09:01:04.723Z,76.88
2022-09-23T09:02:04.657Z,77.05
2022-09-23T09:03:04.641Z,76.34
2022-09-23T09:04:07.388Z,76.24
2022-09-23T09:05:04.590Z,76.64
2022-09-23T09:06:04.604Z,76.64
2022-09-23T09:07:31.888Z,76.20
2022-09-23T09:08:04.619Z,75.79
2022-09-23T09:09:04.572Z,75.29
2022-09-23T09:10:04.591Z,75.79
2022-09-23T09:11:04.536Z,73.77
2022-09-23T09:12:04.550Z,74.17
2022-09-23T09:13:04.547Z,75.05
2022-09-23T09:14:04.532Z,75.56
2022-09-23T09:15:04.498Z,74.65
2022-09-23T09:16:04.578Z,74.44
2022-09-23T09:17:04.532Z,74.54
2022-09-23T09:18:04.554Z,74.00
2022-09-23T09:19:04.464Z,74.10
2022-09-23T09:20:04.455Z,73.80
2022-09-23T09:21:04.443Z,72.99
2022-09-23T09:22:04.457Z,72.38
2022-09-23T09:23:04.420Z,72.65
2022-09-23T09:24:04.423Z,72.65
2022-09-23T09:25:04.391Z,72.34
2022-09-23T09:26:04.400Z,72.04
2022-09-23T09:27:04.404Z,72.61
2022-09-23T09:28:04.384Z,72.31
2022-09-23T09:29:17.083Z,72.41
2022-09-23T09:30:04.368Z,71.77
2022-09-23T09:31:04.369Z,71.57
2022-09-23T09:32:04.345Z,69.95
2022-09-23T09:33:04.337Z,69.04
2022-09-23T09:34:04.305Z,70.65
2022-09-23T09:35:04.285Z,71.37
2022-09-23T09:36:04.301Z,71.73
2022-09-23T09:37:07.050Z,71.44
2022-09-23T09:38:04.284Z,70.02
2022-09-23T09:39:04.262Z,70.02
2022-09-23T09:40:04.301Z,70.12
2022-09-23T09:41:04.236Z,69.31
2022-09-23T09:42:04.222Z,67.59
2022-09-23T09:43:04.213Z,67.55
2022-09-23T09:44:04.214Z,68.57
2022-09-23T09:45:04.190Z,69.78
2022-09-23T09:46:04.197Z,69.48
2022-09-23T09:47:04.319Z,70.59
2022-09-23T09:48:04.178Z,69.98
2022-09-23T09:49:04.168Z,68.23
2022-09-23T09:50:04.141Z,68.23
2022-09-23T09:51:04.138Z,68.94
2022-09-23T09:52:04.131Z,67.72
2022-09-23T09:53:04.062Z,67.22
2022-09-23T09:54:04.081Z,66.82
2022-09-23T09:55:04.024Z,66.78
2022-09-23T09:56:05.520Z,67.80
2022-09-23T09:57:04.057Z,67.29
2022-09-23T09:58:04.022Z,65.98
2022-09-23T09:59:04.008Z,65.47
2022-09-23T10:00:03.969Z,64.87
2022-09-23T10:01:04.032Z,65.37
2022-09-23T10:02:04.006Z,65.67
2022-09-23T10:03:03.962Z,65.67
2022-09-23T10:04:04.006Z,65.88
2022-09-23T10:05:03.929Z,66.48
2022-09-23T10:06:03.974Z,65.47
2022-09-23T10:07:03.937Z,65.17
2022-09-23T10:08:03.907Z,65.78
2022-09-23T10:09:03.907Z,65.88
2022-09-23T10:10:21.858Z,66.11
2022-09-23T10:11:03.889Z,66.61
2022-09-23T10:12:03.878Z,68.10
2022-09-23T10:13:03.862Z,68.40
2022-09-23T10:14:03.871Z,68.33
2022-09-23T10:15:03.838Z,67.22
2022-09-23T10:16:03.919Z,66.11
2022-09-23T10:17:03.976Z,66.21
2022-09-23T10:18:03.802Z,66.72
2022-09-23T10:19:03.788Z,66.52
2022-09-23T10:20:03.804Z,67.02
2022-09-23T10:21:03.780Z,66.41
2022-09-23T10:22:03.771Z,67.12
2022-09-23T10:23:03.766Z,66.72
2022-09-23T10:24:03.753Z,67.43
2022-09-23T10:25:03.754Z,68.33
2022-09-23T10:26:03.741Z,68.33
2022-09-23T10:27:03.736Z,67.29
2022-09-23T10:28:07.941Z,67.60
2022-09-23T10:29:03.737Z,66.99
2022-09-23T10:30:03.685Z,67.09
2022-09-23T10:31:03.762Z,67.69
2022-09-23T10:32:03.665Z,68.20
2022-09-23T10:33:03.669Z,67.90
2022-09-23T10:34:03.649Z,68.51
2022-09-23T10:35:03.639Z,67.56
2022-09-23T10:36:03.636Z,67.46
2022-09-23T10:37:03.610Z,66.45
2022-09-23T10:38:03.598Z,67.16
2022-09-23T10:39:03.602Z,67.06
2022-09-23T10:40:03.773Z,67.53
2022-09-23T10:41:03.715Z,67.02
2022-09-23T10:42:03.559Z,67.02
2022-09-23T10:43:03.570Z,64.90
2022-09-23T10:44:03.607Z,64.00
2022-09-23T10:45:03.556Z,64.87
2022-09-23T10:46:03.592Z,65.88
2022-09-23T10:47:03.529Z,66.49
2022-09-23T10:48:03.527Z,65.58
2022-09-23T10:49:03.507Z,65.88
2022-09-23T10:50:03.495Z,64.78
2022-09-23T10:51:03.479Z,61.65
2022-09-23T10:52:03.472Z,63.56
2022-09-23T10:53:03.490Z,63.03
2022-09-23T10:54:03.581Z,63.73
2022-09-23T10:55:03.460Z,64.34
2022-09-23T10:56:03.455Z,62.32
2022-09-23T10:57:03.435Z,62.63
2022-09-23T10:58:03.427Z,62.02
2022-09-23T10:59:03.415Z,60.41
2022-09-23T11:00:03.393Z,62.32
2022-09-23T11:01:03.468Z,60.51
2022-09-23T11:02:03.401Z,59.90
2022-09-23T11:03:03.394Z,59.70
2022-09-23T11:04:03.602Z,59.20
2022-09-23T11:05:03.363Z,59.30
2022-09-23T11:06:03.346Z,59.30
2022-09-23T11:07:03.336Z,59.07
2022-09-23T11:08:04.013Z,58.36
2022-09-23T11:09:03.311Z,59.07
2022-09-23T11:10:03.290Z,59.07
2022-09-23T11:11:03.285Z,58.34
2022-09-23T11:12:03.283Z,57.12
2022-09-23T11:13:03.257Z,57.73
2022-09-23T11:14:03.245Z,57.43
2022-09-23T11:15:03.245Z,57.83
2022-09-23T11:16:03.269Z,57.00
2022-09-23T11:17:03.304Z,58.11
2022-09-23T11:18:03.210Z,59.22
2022-09-23T11:19:03.227Z,59.01
2022-09-23T11:20:03.195Z,58.88
2022-09-23T11:21:03.168Z,58.28
2022-09-23T11:22:03.199Z,58.45
2022-09-23T11:23:03.171Z,57.35
2022-09-23T11:24:03.241Z,56.04
2022-09-23T11:25:03.135Z,57.45
2022-09-23T11:26:03.140Z,57.15
2022-09-23T11:27:03.110Z,57.02
2022-09-23T11:28:03.101Z,56.44
2022-09-23T11:29:03.123Z,57.55
2022-09-23T11:30:03.094Z,55.94
2022-09-23T11:31:03.171Z,56.44
2022-09-23T11:32:03.085Z,56.24
2022-09-23T11:34:03.094Z,55.83
2022-09-23T11:35:03.037Z,55.81
2022-09-23T11:36:03.018Z,56.51
2022-09-23T11:37:03.020Z,56.41
2022-09-23T11:38:03.000Z,56.82
2022-09-23T11:39:03.008Z,58.73
2022-09-23T11:40:03.005Z,56.62
2022-09-23T11:41:03.133Z,57.22
2022-09-23T11:42:02.941Z,56.11
2022-09-23T11:43:02.945Z,55.31
2022-09-23T11:44:03.013Z,56.71
2022-09-23T11:45:02.947Z,56.82
2022-09-23T11:46:03.051Z,56.11
2022-09-23T11:47:02.921Z,58.33
2022-09-23T11:48:02.905Z,58.12
2022-09-23T11:49:02.883Z,56.62
2022-09-23T11:50:02.864Z,57.12
2022-09-23T11:51:02.876Z,58.12
2022-09-23T11:52:02.881Z,59.03
2022-09-23T11:53:02.837Z,58.15
2022-09-23T11:54:02.893Z,55.23
2022-09-23T11:55:07.425Z,54.43
2022-09-23T11:56:02.818Z,55.43
2022-09-23T11:57:02.819Z,55.54
2022-09-23T11:58:02.827Z,56.01
2022-09-23T11:59:02.829Z,56.51
2022-09-23T12:00:02.771Z,55.81
2022-09-23T12:01:02.769Z,57.02
2022-09-23T12:02:14.044Z,57.52
2022-09-23T12:03:06.078Z,56.51
2022-09-23T12:04:14.903Z,56.01
2022-09-23T12:05:03.045Z,58.12
2022-09-23T12:06:02.748Z,57.72
2022-09-23T12:07:02.701Z,57.72
2022-09-23T12:08:02.698Z,56.92
2022-09-23T12:09:02.671Z,57.32
2022-09-23T12:10:02.663Z,57.65
2022-09-23T12:11:02.691Z,57.15
2022-09-23T12:12:02.659Z,57.24
2022-09-23T12:13:02.637Z,55.74
2022-09-23T12:14:02.717Z,55.54
2022-09-23T12:15:02.625Z,55.54
2022-09-23T12:16:02.599Z,54.73
2022-09-23T12:17:02.756Z,55.66
2022-09-23T12:18:02.570Z,55.54
2022-09-23T12:19:02.569Z,56.04
2022-09-23T12:20:02.564Z,56.44
2022-09-23T12:21:02.547Z,56.04
2022-09-23T12:22:02.547Z,56.34
2022-09-23T12:23:02.523Z,56.95
2022-09-23T12:24:02.543Z,56.74
2022-09-23T12:25:02.506Z,57.24
2022-09-23T12:26:02.503Z,56.54
2022-09-23T12:27:02.508Z,56.64
2022-09-23T12:28:02.455Z,56.04
2022-09-23T12:29:02.474Z,57.04
2022-09-23T12:30:02.456Z,56.74
2022-09-23T12:31:02.494Z,57.95
2022-09-23T12:32:02.442Z,58.05
2022-09-23T12:33:02.435Z,60.16
2022-09-23T12:34:02.411Z,60.03
2022-09-23T12:35:02.412Z,60.13
2022-09-23T12:36:02.427Z,60.06
2022-09-23T12:37:02.395Z,60.47
2022-09-23T12:38:02.361Z,60.57
2022-09-23T12:39:02.365Z,61.50
2022-09-23T12:40:02.344Z,63.42
2022-09-23T12:41:02.345Z,63.42
2022-09-23T12:42:02.319Z,63.11
2022-09-23T12:43:02.325Z,59.19
2022-09-23T12:44:02.360Z,62.21
2022-09-23T12:45:02.289Z,63.11
2022-09-23T12:46:02.325Z,63.21
2022-09-23T12:47:02.324Z,62.01
2022-09-23T12:48:02.282Z,59.39
2022-09-23T12:49:02.266Z,60.09
2022-09-23T12:50:02.262Z,60.67
2022-09-23T12:51:02.221Z,60.67
2022-09-23T12:52:02.237Z,60.16
2022-09-23T12:53:02.220Z,59.26
2022-09-23T12:54:02.190Z,59.06
2022-09-23T12:55:02.230Z,59.86